sensor_id;sensor_type;location;lat;lon;timestamp;temperature;humidity
74873;HTU21D;68776;44.762;37.698;2023-04-01T00:00:17;5.54;70.58
74873;HTU21D;68776;44.762;37.698;2023-04-01T00:01:18;5.55;70.50
74873;HTU21D;68776;44.762;37.698;2023-04-01T00:02:19;5.54;70.39
74873;HTU21D;68776;44.762;37.698;2023-04-01T00:03:21;5.53;70.39
74873;HTU21D;68776;44.762;37.698;2023-04-01T00:04:22;5.52;70.32
74873;HTU21D;68776;44.762;37.698;2023-04-01T00:05:23;5.52;70.39
74873;HTU21D;68776;44.762;37.698;2023-04-01T00:06:25;5.53;70.38
74873;HTU21D;68776;44.762;37.698;2023-04-01T00:07:26;5.52;70.48
74873;HTU21D;68776;44.762;37.698;2023-04-01T00:08:28;5.52;70.42
74873;HTU21D;68776;44.762;37.698;2023-04-01T00:09:29;5.52;70.36
74873;HTU21D;68776;44.762;37.698;2023-04-01T00:10:30;5.52;70.39
74873;HTU21D;68776;44.762;37.698;2023-04-01T00:11:32;5.52;70.31
74873;HTU21D;68776;44.762;37.698;2023-04-01T00:12:33;5.51;70.49
74873;HTU21D;68776;44.762;37.698;2023-04-01T00:13:35;5.51;70.42
74873;HTU21D;68776;44.762;37.698;2023-04-01T00:14:36;5.51;70.50
74873;HTU21D;68776;44.762;37.698;2023-04-01T00:15:37;5.50;70.40
74873;HTU21D;68776;44.762;37.698;2023-04-01T00:16:38;5.50;70.43
74873;HTU21D;68776;44.762;37.698;2023-04-01T00:17:39;5.50;70.44
74873;HTU21D;68776;44.762;37.698;2023-04-01T00:18:40;5.49;70.47
74873;HTU21D;68776;44.762;37.698;2023-04-01T00:19:41;5.49;70.56
74873;HTU21D;68776;44.762;37.698;2023-04-01T00:20:47;5.49;70.67
74873;HTU21D;68776;44.762;37.698;2023-04-01T00:21:48;5.49;71.00
74873;HTU21D;68776;44.762;37.698;2023-04-01T00:22:49;5.49;71.07
74873;HTU21D;68776;44.762;37.698;2023-04-01T00:23:51;5.48;70.90
74873;HTU21D;68776;44.762;37.698;2023-04-01T00:24:52;5.48;70.92
74873;HTU21D;68776;44.762;37.698;2023-04-01T00:25:53;5.46;70.97
74873;HTU21D;68776;44.762;37.698;2023-04-01T00:26:55;5.45;71.00
74873;HTU21D;68776;44.762;37.698;2023-04-01T00:27:56;5.45;71.03
74873;HTU21D;68776;44.762;37.698;2023-04-01T00:28:58;5.46;71.19
74873;HTU21D;68776;44.762;37.698;2023-04-01T00:29:59;5.45;71.19
74873;HTU21D;68776;44.762;37.698;2023-04-01T00:31:07;5.43;71.19
74873;HTU21D;68776;44.762;37.698;2023-04-01T00:32:09;5.43;71.33
74873;HTU21D;68776;44.762;37.698;2023-04-01T00:33:11;5.42;71.38
74873;HTU21D;68776;44.762;37.698;2023-04-01T00:34:12;5.43;71.48
74873;HTU21D;68776;44.762;37.698;2023-04-01T00:35:13;5.42;71.49
74873;HTU21D;68776;44.762;37.698;2023-04-01T00:36:17;5.42;71.45
74873;HTU21D;68776;44.762;37.698;2023-04-01T00:37:19;5.42;71.58
74873;HTU21D;68776;44.762;37.698;2023-04-01T00:38:21;5.42;71.55
74873;HTU21D;68776;44.762;37.698;2023-04-01T00:39:22;5.41;71.56
74873;HTU21D;68776;44.762;37.698;2023-04-01T00:40:32;5.41;71.64
74873;HTU21D;68776;44.762;37.698;2023-04-01T00:41:34;5.41;71.58
74873;HTU21D;68776;44.762;37.698;2023-04-01T00:42:34;5.41;71.57
74873;HTU21D;68776;44.762;37.698;2023-04-01T00:43:36;5.40;71.60
74873;HTU21D;68776;44.762;37.698;2023-04-01T00:44:37;5.40;71.50
74873;HTU21D;68776;44.762;37.698;2023-04-01T00:45:42;5.39;71.48
74873;HTU21D;68776;44.762;37.698;2023-04-01T00:46:43;5.39;71.33
74873;HTU21D;68776;44.762;37.698;2023-04-01T00:47:44;5.39;71.28
74873;HTU21D;68776;44.762;37.698;2023-04-01T00:48:51;5.39;71.24
74873;HTU21D;68776;44.762;37.698;2023-04-01T00:49:54;5.39;71.17
74873;HTU21D;68776;44.762;37.698;2023-04-01T00:51:07;5.37;71.06
74873;HTU21D;68776;44.762;37.698;2023-04-01T00:52:11;5.38;70.95
74873;HTU21D;68776;44.762;37.698;2023-04-01T00:53:14;5.38;70.93
74873;HTU21D;68776;44.762;37.698;2023-04-01T00:54:17;5.37;70.90
74873;HTU21D;68776;44.762;37.698;2023-04-01T00:55:20;5.36;70.92
74873;HTU21D;68776;44.762;37.698;2023-04-01T00:56:25;5.36;70.97
74873;HTU21D;68776;44.762;37.698;2023-04-01T00:57:34;5.36;71.08
74873;HTU21D;68776;44.762;37.698;2023-04-01T00:58:41;5.36;70.96
74873;HTU21D;68776;44.762;37.698;2023-04-01T00:59:47;5.35;70.85
74873;HTU21D;68776;44.762;37.698;2023-04-01T01:00:50;5.35;70.73
74873;HTU21D;68776;44.762;37.698;2023-04-01T01:01:51;5.34;70.64
74873;HTU21D;68776;44.762;37.698;2023-04-01T01:02:52;5.34;70.77
74873;HTU21D;68776;44.762;37.698;2023-04-01T01:03:53;5.34;70.66
74873;HTU21D;68776;44.762;37.698;2023-04-01T01:04:54;5.34;70.51
74873;HTU21D;68776;44.762;37.698;2023-04-01T01:06:28;5.33;70.45
74873;HTU21D;68776;44.762;37.698;2023-04-01T01:08:52;5.34;70.45
74873;HTU21D;68776;44.762;37.698;2023-04-01T01:11:10;5.32;70.41
74873;HTU21D;68776;44.762;37.698;2023-04-01T01:14:55;5.30;70.27
74873;HTU21D;68776;44.762;37.698;2023-04-01T01:16:04;5.30;70.17
74873;HTU21D;68776;44.762;37.698;2023-04-01T01:18:53;5.30;70.41
74873;HTU21D;68776;44.762;37.698;2023-04-01T01:21:55;5.27;70.37
74873;HTU21D;68776;44.762;37.698;2023-04-01T01:24:34;5.26;70.54
74873;HTU21D;68776;44.762;37.698;2023-04-01T01:25:42;5.25;70.53
74873;HTU21D;68776;44.762;37.698;2023-04-01T01:32:25;5.24;70.82
74873;HTU21D;68776;44.762;37.698;2023-04-01T01:33:39;5.25;70.83
74873;HTU21D;68776;44.762;37.698;2023-04-01T01:35:57;5.27;70.84
74873;HTU21D;68776;44.762;37.698;2023-04-01T01:37:10;5.26;70.93
74873;HTU21D;68776;44.762;37.698;2023-04-01T01:38:18;5.27;71.10
74873;HTU21D;68776;44.762;37.698;2023-04-01T01:39:39;5.30;71.05
74873;HTU21D;68776;44.762;37.698;2023-04-01T01:40:43;5.27;70.97
74873;HTU21D;68776;44.762;37.698;2023-04-01T01:41:46;5.28;71.02
74873;HTU21D;68776;44.762;37.698;2023-04-01T01:42:52;5.27;71.07
74873;HTU21D;68776;44.762;37.698;2023-04-01T01:43:56;5.26;71.10
74873;HTU21D;68776;44.762;37.698;2023-04-01T01:45:00;5.26;71.24
74873;HTU21D;68776;44.762;37.698;2023-04-01T01:46:07;5.26;71.28
74873;HTU21D;68776;44.762;37.698;2023-04-01T01:47:10;5.27;71.22
74873;HTU21D;68776;44.762;37.698;2023-04-01T01:48:12;5.27;71.26
74873;HTU21D;68776;44.762;37.698;2023-04-01T01:49:14;5.27;71.29
74873;HTU21D;68776;44.762;37.698;2023-04-01T01:50:15;5.28;71.35
74873;HTU21D;68776;44.762;37.698;2023-04-01T01:51:18;5.28;71.38
74873;HTU21D;68776;44.762;37.698;2023-04-01T01:52:22;5.30;71.41
74873;HTU21D;68776;44.762;37.698;2023-04-01T01:53:23;5.31;71.38
74873;HTU21D;68776;44.762;37.698;2023-04-01T01:54:24;5.28;71.37
74873;HTU21D;68776;44.762;37.698;2023-04-01T01:55:33;5.28;71.33
74873;HTU21D;68776;44.762;37.698;2023-04-01T01:56:34;5.25;71.38
74873;HTU21D;68776;44.762;37.698;2023-04-01T01:57:37;5.28;71.40
74873;HTU21D;68776;44.762;37.698;2023-04-01T01:58:47;5.30;71.50
74873;HTU21D;68776;44.762;37.698;2023-04-01T01:59:55;5.28;71.60
74873;HTU21D;68776;44.762;37.698;2023-04-01T02:01:03;0.00;71.84
74873;HTU21D;68776;44.762;37.698;2023-04-01T02:02:07;5.28;71.72
74873;HTU21D;68776;44.762;37.698;2023-04-01T02:03:10;5.28;71.71
74873;HTU21D;68776;44.762;37.698;2023-04-01T02:04:13;5.30;71.74
74873;HTU21D;68776;44.762;37.698;2023-04-01T02:05:22;5.30;71.77
74873;HTU21D;68776;44.762;37.698;2023-04-01T02:06:26;5.27;71.72
74873;HTU21D;68776;44.762;37.698;2023-04-01T02:07:33;5.27;71.65
74873;HTU21D;68776;44.762;37.698;2023-04-01T02:08:41;5.27;71.82
74873;HTU21D;68776;44.762;37.698;2023-04-01T02:09:43;5.27;71.81
74873;HTU21D;68776;44.762;37.698;2023-04-01T02:10:49;5.26;71.96
74873;HTU21D;68776;44.762;37.698;2023-04-01T02:11:59;5.25;71.95
74873;HTU21D;68776;44.762;37.698;2023-04-01T02:13:09;5.24;72.04
74873;HTU21D;68776;44.762;37.698;2023-04-01T02:14:17;5.24;72.06
74873;HTU21D;68776;44.762;37.698;2023-04-01T02:15:19;5.23;72.16
74873;HTU21D;68776;44.762;37.698;2023-04-01T02:16:28;5.23;72.15
74873;HTU21D;68776;44.762;37.698;2023-04-01T02:17:34;5.23;72.16
74873;HTU21D;68776;44.762;37.698;2023-04-01T02:18:39;5.21;72.27
74873;HTU21D;68776;44.762;37.698;2023-04-01T02:19:50;5.21;72.41
74873;HTU21D;68776;44.762;37.698;2023-04-01T02:20:52;5.20;72.45
74873;HTU21D;68776;44.762;37.698;2023-04-01T02:21:57;5.20;72.64
74873;HTU21D;68776;44.762;37.698;2023-04-01T02:23:00;5.19;72.58
74873;HTU21D;68776;44.762;37.698;2023-04-01T02:24:05;5.19;72.62
74873;HTU21D;68776;44.762;37.698;2023-04-01T02:25:13;5.18;72.60
74873;HTU21D;68776;44.762;37.698;2023-04-01T02:26:15;5.17;72.85
74873;HTU21D;68776;44.762;37.698;2023-04-01T02:27:16;5.17;73.06
74873;HTU21D;68776;44.762;37.698;2023-04-01T02:28:18;5.17;72.98
74873;HTU21D;68776;44.762;37.698;2023-04-01T02:29:23;5.17;72.94
74873;HTU21D;68776;44.762;37.698;2023-04-01T02:30:28;5.16;72.95
74873;HTU21D;68776;44.762;37.698;2023-04-01T02:31:30;5.16;73.00
74873;HTU21D;68776;44.762;37.698;2023-04-01T02:32:35;5.15;73.16
74873;HTU21D;68776;44.762;37.698;2023-04-01T02:33:40;5.16;73.35
74873;HTU21D;68776;44.762;37.698;2023-04-01T02:34:42;5.16;73.38
74873;HTU21D;68776;44.762;37.698;2023-04-01T02:35:43;5.16;73.31
74873;HTU21D;68776;44.762;37.698;2023-04-01T02:36:45;5.13;73.34
74873;HTU21D;68776;44.762;37.698;2023-04-01T02:37:48;5.12;73.37
74873;HTU21D;68776;44.762;37.698;2023-04-01T02:38:50;5.11;73.36
74873;HTU21D;68776;44.762;37.698;2023-04-01T02:39:52;5.12;73.38
74873;HTU21D;68776;44.762;37.698;2023-04-01T02:40:59;5.12;73.48
74873;HTU21D;68776;44.762;37.698;2023-04-01T02:42:01;5.12;73.55
74873;HTU21D;68776;44.762;37.698;2023-04-01T02:43:03;5.12;73.58
74873;HTU21D;68776;44.762;37.698;2023-04-01T02:44:04;5.10;73.61
74873;HTU21D;68776;44.762;37.698;2023-04-01T02:45:06;5.11;73.62
74873;HTU21D;68776;44.762;37.698;2023-04-01T02:46:07;5.11;73.70
74873;HTU21D;68776;44.762;37.698;2023-04-01T02:47:08;5.11;73.77
74873;HTU21D;68776;44.762;37.698;2023-04-01T02:48:09;5.12;73.86
74873;HTU21D;68776;44.762;37.698;2023-04-01T02:49:10;5.12;73.83
74873;HTU21D;68776;44.762;37.698;2023-04-01T02:50:11;5.13;74.13
74873;HTU21D;68776;44.762;37.698;2023-04-01T02:51:12;5.15;73.90
74873;HTU21D;68776;44.762;37.698;2023-04-01T02:52:13;5.15;74.02
74873;HTU21D;68776;44.762;37.698;2023-04-01T02:53:14;5.15;74.20
74873;HTU21D;68776;44.762;37.698;2023-04-01T02:54:15;5.16;74.14
74873;HTU21D;68776;44.762;37.698;2023-04-01T02:55:17;5.15;74.03
74873;HTU21D;68776;44.762;37.698;2023-04-01T02:56:17;5.15;73.94
74873;HTU21D;68776;44.762;37.698;2023-04-01T02:57:20;5.15;73.99
74873;HTU21D;68776;44.762;37.698;2023-04-01T02:58:21;5.15;73.96
74873;HTU21D;68776;44.762;37.698;2023-04-01T02:59:22;5.16;73.96
74873;HTU21D;68776;44.762;37.698;2023-04-01T03:00:24;5.16;74.11
74873;HTU21D;68776;44.762;37.698;2023-04-01T03:01:25;5.15;74.12
74873;HTU21D;68776;44.762;37.698;2023-04-01T03:02:26;5.13;74.12
74873;HTU21D;68776;44.762;37.698;2023-04-01T03:03:28;5.13;29.15
74873;HTU21D;68776;44.762;37.698;2023-04-01T03:04:28;5.11;74.11
74873;HTU21D;68776;44.762;37.698;2023-04-01T03:05:29;5.12;74.18
74873;HTU21D;68776;44.762;37.698;2023-04-01T03:06:30;5.12;74.21
74873;HTU21D;68776;44.762;37.698;2023-04-01T03:07:31;5.13;74.33
74873;HTU21D;68776;44.762;37.698;2023-04-01T03:08:32;5.15;74.25
74873;HTU21D;68776;44.762;37.698;2023-04-01T03:09:34;5.13;74.28
74873;HTU21D;68776;44.762;37.698;2023-04-01T03:10:35;5.15;74.55
74873;HTU21D;68776;44.762;37.698;2023-04-01T03:11:35;5.15;74.47
74873;HTU21D;68776;44.762;37.698;2023-04-01T03:12:37;5.16;74.43
74873;HTU21D;68776;44.762;37.698;2023-04-01T03:13:38;5.16;74.45
74873;HTU21D;68776;44.762;37.698;2023-04-01T03:14:39;5.16;74.57
74873;HTU21D;68776;44.762;37.698;2023-04-01T03:15:40;5.18;74.54
74873;HTU21D;68776;44.762;37.698;2023-04-01T03:16:40;5.17;74.48
74873;HTU21D;68776;44.762;37.698;2023-04-01T03:17:42;5.18;74.51
74873;HTU21D;68776;44.762;37.698;2023-04-01T03:18:44;5.17;74.63
74873;HTU21D;68776;44.762;37.698;2023-04-01T03:19:45;5.18;74.64
74873;HTU21D;68776;44.762;37.698;2023-04-01T03:20:46;5.18;74.56
74873;HTU21D;68776;44.762;37.698;2023-04-01T03:21:47;5.18;74.54
74873;HTU21D;68776;44.762;37.698;2023-04-01T03:22:48;5.19;74.56
74873;HTU21D;68776;44.762;37.698;2023-04-01T03:23:50;5.19;74.60
74873;HTU21D;68776;44.762;37.698;2023-04-01T03:24:51;5.19;74.64
74873;HTU21D;68776;44.762;37.698;2023-04-01T03:25:51;5.21;74.64
74873;HTU21D;68776;44.762;37.698;2023-04-01T03:26:52;5.21;74.60
74873;HTU21D;68776;44.762;37.698;2023-04-01T03:27:53;5.21;74.57
74873;HTU21D;68776;44.762;37.698;2023-04-01T03:28:56;5.23;74.67
74873;HTU21D;68776;44.762;37.698;2023-04-01T03:29:57;5.23;74.56
74873;HTU21D;68776;44.762;37.698;2023-04-01T03:30:58;5.23;74.51
74873;HTU21D;68776;44.762;37.698;2023-04-01T03:31:58;5.24;74.49
74873;HTU21D;68776;44.762;37.698;2023-04-01T03:33:00;5.25;74.48
74873;HTU21D;68776;44.762;37.698;2023-04-01T03:34:01;5.27;74.42
74873;HTU21D;68776;44.762;37.698;2023-04-01T03:35:02;5.30;74.37
74873;HTU21D;68776;44.762;37.698;2023-04-01T03:36:04;5.34;74.26
74873;HTU21D;68776;44.762;37.698;2023-04-01T03:37:07;5.37;74.15
74873;HTU21D;68776;44.762;37.698;2023-04-01T03:38:08;5.37;74.06
74873;HTU21D;68776;44.762;37.698;2023-04-01T03:39:09;5.39;74.03
74873;HTU21D;68776;44.762;37.698;2023-04-01T03:40:15;5.40;74.13
74873;HTU21D;68776;44.762;37.698;2023-04-01T03:41:17;5.42;74.07
74873;HTU21D;68776;44.762;37.698;2023-04-01T03:42:18;5.43;73.94
74873;HTU21D;68776;44.762;37.698;2023-04-01T03:43:19;5.47;73.84
74873;HTU21D;68776;44.762;37.698;2023-04-01T03:44:21;5.51;73.88
74873;HTU21D;68776;44.762;37.698;2023-04-01T03:45:25;5.54;73.74
74873;HTU21D;68776;44.762;37.698;2023-04-01T03:46:26;5.57;73.67
74873;HTU21D;68776;44.762;37.698;2023-04-01T03:47:27;5.61;73.57
74873;HTU21D;68776;44.762;37.698;2023-04-01T03:48:28;5.61;73.48
74873;HTU21D;68776;44.762;37.698;2023-04-01T03:49:29;5.65;73.41
74873;HTU21D;68776;44.762;37.698;2023-04-01T03:50:30;5.69;73.28
74873;HTU21D;68776;44.762;37.698;2023-04-01T03:51:31;5.75;73.12
74873;HTU21D;68776;44.762;37.698;2023-04-01T03:52:33;5.80;73.00
74873;HTU21D;68776;44.762;37.698;2023-04-01T03:53:34;5.81;72.93
74873;HTU21D;68776;44.762;37.698;2023-04-01T03:54:38;5.83;72.94
74873;HTU21D;68776;44.762;37.698;2023-04-01T03:55:40;5.87;72.77
74873;HTU21D;68776;44.762;37.698;2023-04-01T03:56:41;5.90;72.76
74873;HTU21D;68776;44.762;37.698;2023-04-01T03:57:42;5.93;72.66
74873;HTU21D;68776;44.762;37.698;2023-04-01T03:58:50;5.96;72.58
74873;HTU21D;68776;44.762;37.698;2023-04-01T03:59:51;5.98;72.56
74873;HTU21D;68776;44.762;37.698;2023-04-01T04:00:52;5.98;72.48
74873;HTU21D;68776;44.762;37.698;2023-04-01T04:01:53;5.99;72.49
74873;HTU21D;68776;44.762;37.698;2023-04-01T04:02:54;6.01;72.40
74873;HTU21D;68776;44.762;37.698;2023-04-01T04:04:01;6.02;72.37
74873;HTU21D;68776;44.762;37.698;2023-04-01T04:05:03;6.05;72.37
74873;HTU21D;68776;44.762;37.698;2023-04-01T04:06:04;6.05;72.34
74873;HTU21D;68776;44.762;37.698;2023-04-01T04:07:05;6.09;72.22
74873;HTU21D;68776;44.762;37.698;2023-04-01T04:08:22;6.15;72.11
74873;HTU21D;68776;44.762;37.698;2023-04-01T04:09:23;6.21;72.03
74873;HTU21D;68776;44.762;37.698;2023-04-01T04:10:24;6.28;72.03
74873;HTU21D;68776;44.762;37.698;2023-04-01T04:11:26;6.35;71.88
74873;HTU21D;68776;44.762;37.698;2023-04-01T04:12:27;6.42;71.80
74873;HTU21D;68776;44.762;37.698;2023-04-01T04:13:28;6.48;71.61
74873;HTU21D;68776;44.762;37.698;2023-04-01T04:14:34;6.55;71.42
74873;HTU21D;68776;44.762;37.698;2023-04-01T04:15:35;6.59;71.26
74873;HTU21D;68776;44.762;37.698;2023-04-01T04:16:36;6.64;71.27
74873;HTU21D;68776;44.762;37.698;2023-04-01T04:17:37;6.68;71.15
74873;HTU21D;68776;44.762;37.698;2023-04-01T04:18:38;6.74;71.10
74873;HTU21D;68776;44.762;37.698;2023-04-01T04:19:39;6.75;70.97
74873;HTU21D;68776;44.762;37.698;2023-04-01T04:20:44;6.79;70.90
74873;HTU21D;68776;44.762;37.698;2023-04-01T04:21:47;6.84;70.70
74873;HTU21D;68776;44.762;37.698;2023-04-01T04:22:48;6.89;70.27
74873;HTU21D;68776;44.762;37.698;2023-04-01T04:23:49;6.96;70.04
74873;HTU21D;68776;44.762;37.698;2023-04-01T04:24:52;7.03;70.00
74873;HTU21D;68776;44.762;37.698;2023-04-01T04:26:06;7.11;69.75
74873;HTU21D;68776;44.762;37.698;2023-04-01T04:27:07;7.14;69.66
74873;HTU21D;68776;44.762;37.698;2023-04-01T04:28:10;7.20;69.57
74873;HTU21D;68776;44.762;37.698;2023-04-01T04:29:11;7.23;69.51
74873;HTU21D;68776;44.762;37.698;2023-04-01T04:30:12;7.29;69.40
74873;HTU21D;68776;44.762;37.698;2023-04-01T04:31:19;7.37;69.39
74873;HTU21D;68776;44.762;37.698;2023-04-01T04:32:21;7.42;69.12
74873;HTU21D;68776;44.762;37.698;2023-04-01T04:33:23;7.46;68.73
74873;HTU21D;68776;44.762;37.698;2023-04-01T04:34:24;7.47;68.62
74873;HTU21D;68776;44.762;37.698;2023-04-01T04:35:25;7.55;68.59
74873;HTU21D;68776;44.762;37.698;2023-04-01T04:36:26;7.62;68.50
74873;HTU21D;68776;44.762;37.698;2023-04-01T04:37:27;7.67;68.36
74873;HTU21D;68776;44.762;37.698;2023-04-01T04:38:28;7.71;68.13
74873;HTU21D;68776;44.762;37.698;2023-04-01T04:39:30;7.76;67.80
74873;HTU21D;68776;44.762;37.698;2023-04-01T04:40:31;7.82;67.69
74873;HTU21D;68776;44.762;37.698;2023-04-01T04:41:32;7.87;67.69
74873;HTU21D;68776;44.762;37.698;2023-04-01T04:42:33;7.90;67.54
74873;HTU21D;68776;44.762;37.698;2023-04-01T04:43:49;7.92;67.42
74873;HTU21D;68776;44.762;37.698;2023-04-01T04:44:50;7.98;67.35
74873;HTU21D;68776;44.762;37.698;2023-04-01T04:45:51;8.02;67.35
74873;HTU21D;68776;44.762;37.698;2023-04-01T04:46:52;8.07;67.20
74873;HTU21D;68776;44.762;37.698;2023-04-01T04:47:53;8.11;67.11
74873;HTU21D;68776;44.762;37.698;2023-04-01T04:48:54;8.13;66.76
74873;HTU21D;68776;44.762;37.698;2023-04-01T04:49:56;8.15;66.26
74873;HTU21D;68776;44.762;37.698;2023-04-01T04:50:57;8.15;65.95
74873;HTU21D;68776;44.762;37.698;2023-04-01T04:51:59;8.17;65.88
74873;HTU21D;68776;44.762;37.698;2023-04-01T04:53:02;8.22;66.01
74873;HTU21D;68776;44.762;37.698;2023-04-01T04:54:06;8.24;65.87
74873;HTU21D;68776;44.762;37.698;2023-04-01T04:55:29;0.00;65.99
74873;HTU21D;68776;44.762;37.698;2023-04-01T04:56:53;8.35;65.95
74873;HTU21D;68776;44.762;37.698;2023-04-01T04:57:56;8.42;65.86
74873;HTU21D;68776;44.762;37.698;2023-04-01T04:58:57;8.48;65.87
74873;HTU21D;68776;44.762;37.698;2023-04-01T05:00:07;8.52;65.73
74873;HTU21D;68776;44.762;37.698;2023-04-01T05:01:29;8.46;65.64
74873;HTU21D;68776;44.762;37.698;2023-04-01T05:02:30;8.41;65.74
74873;HTU21D;68776;44.762;37.698;2023-04-01T05:03:31;8.42;65.76
74873;HTU21D;68776;44.762;37.698;2023-04-01T05:04:36;8.46;65.70
74873;HTU21D;68776;44.762;37.698;2023-04-01T05:05:39;8.49;65.63
74873;HTU21D;68776;44.762;37.698;2023-04-01T05:06:40;8.53;65.66
74873;HTU21D;68776;44.762;37.698;2023-04-01T05:07:41;8.62;65.65
74873;HTU21D;68776;44.762;37.698;2023-04-01T05:08:43;8.67;65.46
74873;HTU21D;68776;44.762;37.698;2023-04-01T05:09:44;8.71;65.37
74873;HTU21D;68776;44.762;37.698;2023-04-01T05:10:47;8.73;65.29
74873;HTU21D;68776;44.762;37.698;2023-04-01T05:11:48;8.75;65.10
74873;HTU21D;68776;44.762;37.698;2023-04-01T05:12:49;8.78;64.93
74873;HTU21D;68776;44.762;37.698;2023-04-01T05:13:53;8.85;64.91
74873;HTU21D;68776;44.762;37.698;2023-04-01T05:14:54;8.88;64.72
74873;HTU21D;68776;44.762;37.698;2023-04-01T05:15:55;8.83;64.40
74873;HTU21D;68776;44.762;37.698;2023-04-01T05:16:56;8.82;64.39
74873;HTU21D;68776;44.762;37.698;2023-04-01T05:17:57;8.80;64.19
74873;HTU21D;68776;44.762;37.698;2023-04-01T05:18:58;8.77;64.26
74873;HTU21D;68776;44.762;37.698;2023-04-01T05:20:00;8.75;64.33
74873;HTU21D;68776;44.762;37.698;2023-04-01T05:21:01;8.78;64.37
74873;HTU21D;68776;44.762;37.698;2023-04-01T05:22:03;8.82;64.24
74873;HTU21D;68776;44.762;37.698;2023-04-01T05:23:04;8.88;64.20
74873;HTU21D;68776;44.762;37.698;2023-04-01T05:24:08;8.91;64.02
74873;HTU21D;68776;44.762;37.698;2023-04-01T05:25:10;8.93;64.17
74873;HTU21D;68776;44.762;37.698;2023-04-01T05:26:13;8.96;64.14
74873;HTU21D;68776;44.762;37.698;2023-04-01T05:27:15;8.96;64.21
74873;HTU21D;68776;44.762;37.698;2023-04-01T05:28:17;8.97;64.40
74873;HTU21D;68776;44.762;37.698;2023-04-01T05:29:20;8.93;64.38
74873;HTU21D;68776;44.762;37.698;2023-04-01T05:30:25;8.93;64.42
74873;HTU21D;68776;44.762;37.698;2023-04-01T05:31:35;8.89;64.42
74873;HTU21D;68776;44.762;37.698;2023-04-01T05:32:38;8.89;64.48
74873;HTU21D;68776;44.762;37.698;2023-04-01T05:33:39;8.89;64.48
74873;HTU21D;68776;44.762;37.698;2023-04-01T05:34:40;8.91;64.61
74873;HTU21D;68776;44.762;37.698;2023-04-01T05:35:42;8.98;64.53
74873;HTU21D;68776;44.762;37.698;2023-04-01T05:36:44;9.03;64.15
74873;HTU21D;68776;44.762;37.698;2023-04-01T05:37:45;9.04;63.99
74873;HTU21D;68776;44.762;37.698;2023-04-01T05:38:46;9.07;64.02
74873;HTU21D;68776;44.762;37.698;2023-04-01T05:39:47;9.15;64.03
74873;HTU21D;68776;44.762;37.698;2023-04-01T05:40:48;9.22;63.72
74873;HTU21D;68776;44.762;37.698;2023-04-01T05:41:49;9.23;63.50
74873;HTU21D;68776;44.762;37.698;2023-04-01T05:42:50;9.27;63.28
74873;HTU21D;68776;44.762;37.698;2023-04-01T05:43:52;65.71;63.22
74873;HTU21D;68776;44.762;37.698;2023-04-01T05:45:11;9.30;63.12
74873;HTU21D;68776;44.762;37.698;2023-04-01T05:46:38;9.31;63.05
74873;HTU21D;68776;44.762;37.698;2023-04-01T05:48:08;9.35;62.89
74873;HTU21D;68776;44.762;37.698;2023-04-01T05:49:13;9.39;62.67
74873;HTU21D;68776;44.762;37.698;2023-04-01T05:50:14;9.40;62.50
74873;HTU21D;68776;44.762;37.698;2023-04-01T05:51:16;9.46;62.47
74873;HTU21D;68776;44.762;37.698;2023-04-01T05:52:17;9.50;62.20
74873;HTU21D;68776;44.762;37.698;2023-04-01T05:53:18;9.59;62.31
74873;HTU21D;68776;44.762;37.698;2023-04-01T05:54:19;9.70;62.34
74873;HTU21D;68776;44.762;37.698;2023-04-01T05:55:20;9.81;62.20
74873;HTU21D;68776;44.762;37.698;2023-04-01T05:56:23;9.88;61.90
74873;HTU21D;68776;44.762;37.698;2023-04-01T05:57:26;9.90;61.86
74873;HTU21D;68776;44.762;37.698;2023-04-01T05:58:27;9.91;61.69
74873;HTU21D;68776;44.762;37.698;2023-04-01T05:59:28;9.88;61.82
74873;HTU21D;68776;44.762;37.698;2023-04-01T06:00:31;9.85;62.05
74873;HTU21D;68776;44.762;37.698;2023-04-01T06:01:34;9.89;62.12
74873;HTU21D;68776;44.762;37.698;2023-04-01T06:02:35;10.00;62.24
74873;HTU21D;68776;44.762;37.698;2023-04-01T06:03:37;10.11;62.11
74873;HTU21D;68776;44.762;37.698;2023-04-01T06:04:39;10.16;61.86
74873;HTU21D;68776;44.762;37.698;2023-04-01T06:05:42;10.28;61.71
74873;HTU21D;68776;44.762;37.698;2023-04-01T06:06:44;10.35;61.49
74873;HTU21D;68776;44.762;37.698;2023-04-01T06:07:47;10.30;61.42
74873;HTU21D;68776;44.762;37.698;2023-04-01T06:08:49;10.31;61.17
74873;HTU21D;68776;44.762;37.698;2023-04-01T06:09:50;10.40;60.89
74873;HTU21D;68776;44.762;37.698;2023-04-01T06:17:58;10.79;60.53
74873;HTU21D;68776;44.762;37.698;2023-04-01T06:19:31;11.03;60.06
74873;HTU21D;68776;44.762;37.698;2023-04-01T06:24:54;10.93;59.59
74873;HTU21D;68776;44.762;37.698;2023-04-01T06:31:43;10.85;59.60
74873;HTU21D;68776;44.762;37.698;2023-04-01T06:34:38;10.68;59.70
74873;HTU21D;68776;44.762;37.698;2023-04-01T06:41:20;10.09;60.76
74873;HTU21D;68776;44.762;37.698;2023-04-01T06:42:51;10.11;60.94
74873;HTU21D;68776;44.762;37.698;2023-04-01T06:47:57;10.79;59.95
74873;HTU21D;68776;44.762;37.698;2023-04-01T06:49:21;10.97;59.26
74873;HTU21D;68776;44.762;37.698;2023-04-01T06:54:21;10.79;59.73
74873;HTU21D;68776;44.762;37.698;2023-04-01T06:55:59;10.74;60.02
74873;HTU21D;68776;44.762;37.698;2023-04-01T06:57:45;10.79;60.23
74873;HTU21D;68776;44.762;37.698;2023-04-01T07:00:31;10.86;60.53
74873;HTU21D;68776;44.762;37.698;2023-04-01T07:01:35;10.89;60.12
74873;HTU21D;68776;44.762;37.698;2023-04-01T07:02:43;10.90;59.94
74873;HTU21D;68776;44.762;37.698;2023-04-01T07:04:05;10.95;59.69
74873;HTU21D;68776;44.762;37.698;2023-04-01T07:05:11;10.98;59.77
74873;HTU21D;68776;44.762;37.698;2023-04-01T07:06:21;10.98;59.75
74873;HTU21D;68776;44.762;37.698;2023-04-01T07:07:44;10.93;60.05
74873;HTU21D;68776;44.762;37.698;2023-04-01T07:08:49;10.93;59.97
74873;HTU21D;68776;44.762;37.698;2023-04-01T07:09:55;10.84;59.85
74873;HTU21D;68776;44.762;37.698;2023-04-01T07:11:06;10.86;60.14
74873;HTU21D;68776;44.762;37.698;2023-04-01T07:14:32;11.01;59.97
74873;HTU21D;68776;44.762;37.698;2023-04-01T07:15:38;11.10;59.48
74873;HTU21D;68776;44.762;37.698;2023-04-01T07:16:47;11.02;59.39
74873;HTU21D;68776;44.762;37.698;2023-04-01T07:17:56;10.94;59.53
74873;HTU21D;68776;44.762;37.698;2023-04-01T07:19:18;10.92;59.97
74873;HTU21D;68776;44.762;37.698;2023-04-01T07:20:42;11.07;59.63
74873;HTU21D;68776;44.762;37.698;2023-04-01T07:21:47;11.23;59.48
74873;HTU21D;68776;44.762;37.698;2023-04-01T07:22:59;11.36;59.02
74873;HTU21D;68776;44.762;37.698;2023-04-01T07:24:25;11.25;58.93
74873;HTU21D;68776;44.762;37.698;2023-04-01T07:25:41;11.26;59.03
74873;HTU21D;68776;44.762;37.698;2023-04-01T07:27:19;11.37;58.38
74873;HTU21D;68776;44.762;37.698;2023-04-01T07:28:20;11.44;58.04
74873;HTU21D;68776;44.762;37.698;2023-04-01T07:29:31;11.61;57.36
74873;HTU21D;68776;44.762;37.698;2023-04-01T07:30:50;11.76;57.52
74873;HTU21D;68776;44.762;37.698;2023-04-01T07:32:07;11.99;57.16
74873;HTU21D;68776;44.762;37.698;2023-04-01T07:33:15;12.06;57.06